Traer, IA (50675)

9:53 AM CDT on October 01, 2014 (GMT -0500)
KIATRAER2 | Change Station
CLOSE
Current Station
Personal Weather Station
Location: Traer, IA
Elevation: 955 ft
Nearby Weather Stations

Elev 955 ft 42.19 °N, 92.46 °W | Updated 1 minute ago

Rain
Rain
53.2 °F
Feels Like 53.2 °F
N
4.0
Wind Variable Wind from SE
Gusts 5.0 mph

Today
High -- | Low -- °F
--% Chance of Precip.
Yesterday
High -- | Low -- °F
Precip. -- in
7:06 AM 6:51 PM
Waxing Crescent, 48% visible
Pressure 30.00 in
Visibility 10.0 miles
Clouds Overcast 700 ft
Dew Point 52 °F
Humidity 97%
Rainfall 0.06 in
Snow Depth Not available.
UV 1 out of 12
Pollen .30 out of 12
Air Quality Not available.
Flu Activity Not available.
METAR KMIW 301453Z AUTO 11011KT 10SM OVC007 13/11 A3000 RMK AO2 SLP157 T01280111 55001 TSNO

More Conditions Fewer Conditions

Pressure 30.00 in
Visibility 10.0 miles
Clouds Overcast 700 ft
Dew Point 52 °F
Humidity 97%
Rainfall 0.06 in
Snow Depth Not available.
UV 1 out of 12
Pollen .30 out of 12
Air Quality Not available.
Flu Activity Not available.
METAR KMIW 301453Z AUTO 11011KT 10SM OVC007 13/11 A3000 RMK AO2 SLP157 T01280111 55001 TSNO

More Conditions Fewer Conditions

10-Day Weather Forecast

Almanac

Astronomy

Oct. 01, 2014 Rise Set
Actual Time 7:06 AM CDT 6:51 PM CDT
Civil Twilight 6:39 AM CDT 7:19 PM CDT
Nautical Twilight 6:06 AM CDT 7:51 PM CDT
Astronomical Twilight 5:33 AM CDT 8:24 PM CDT
Moon 2:12 PM CDT No Moon Set
Length of Visible Light 12h 40m
Length of Day
11h 44m
Tomorrow will be 2m 48s shorter.
Waxing Crescent, 48% of the Moon is Illuminated
Today
Waxing Crescent
Oct 1
First Quarter
Oct 8
Full
Oct 15
Last Quarter
Oct 23
New

Today's Extremes

State Highs State Lows

Community

WunderPhotos

Upload Photos

1,757,960 photos uploaded!

Nearby

Snow Depth

Station Depth Elevation
No new snow has been reported.

Earthquake Activity

City Distance Mag. Time & Date
No recent earthquake activity has been reported nearby.
Minimum magnitude displayed is 2.5.

Coastal Water Temperatures

Place Temperature
No Stations Reporting

Nearby Weather Stations